Stonington, ME (04645)

4:28 PM EDT on August 30, 2015 (GMT -0400)
APRSWXNET | | Change Station
CLOSE
Current Station
Personal Weather Station
Location: Stonington, ME
Elevation: 36 ft
Nearby Weather Stations

Elev 36 ft 44.08 °N, 68.63 °W | Updated 21 minutes ago

Clear
Clear
73 °F
Feels Like 75 °F
N
5
Wind Variable Wind from SW
Gusts 13.0 mph

Today
High -- | Low -- °F
--% Chance of Precip.
Yesterday
High -- | Low -- °F
Precip. -- in
5:55 AM 7:14 PM
Full, 98% visible
Pressure 29.97 in
Visibility 10.0 miles
Clouds Few 5000 ft
Heat Index 75 °F
Dew Point 63 °F
Humidity 71%
Rainfall in
Snow Depth Not available.
UV 3 out of 12
Pollen 7.30 out of 12
Air Quality Not available.
Flu Activity Not available.
METAR KRKD 302015Z AUTO 25007KT 10SM FEW050 26/17 A2997 RMK AO1
Pressure 29.97 in
Visibility 10.0 miles
Clouds Few 5000 ft
Heat Index 75 °F
Dew Point 63 °F
Humidity 71%
Rainfall in
Snow Depth Not available.
UV 3 out of 12
Pollen 7.30 out of 12
Air Quality Not available.
Flu Activity Not available.
METAR KRKD 302015Z AUTO 25007KT 10SM FEW050 26/17 A2997 RMK AO1

10-Day Weather Forecast

×

Almanac

Astronomy

Aug. 30, 2015 Rise Set
Actual Time
Civil Twilight
Nautical Twilight
Astronomical Twilight
Moon
Length of Visible Light
Length of Day
Tomorrow will be .
, % of the Moon is Illuminated

Today's Extremes

State Highs State Lows

Community

WunderPhotos

Upload Photos

1,851,048 photos uploaded!

WunderBlogs® & News

Nearby

Air Quality

  Air Quality AQ Index Pollutant
Not available.

Snow Depth

Station Depth Elevation

Earthquake Activity

City Distance Mag. Time & Date
Minimum magnitude displayed is 2.5.

Coastal Water Temperatures

Place Temperature

Stations

Nearby Weather Stations

Station Location Temp. Windchill Dew Point Humidity Wind Precip. Elev Updated Type